createdAt,value
2016-11-25T00:00:25.812Z,84.99
2016-11-25T00:01:36.526Z,85.47
2016-11-25T00:02:47.133Z,85.28
2016-11-25T00:04:12.199Z,85.67
2016-11-25T00:05:22.732Z,85.67
2016-11-25T00:06:47.792Z,85.09
2016-11-25T00:08:12.851Z,85.61
2016-11-25T00:09:23.584Z,85.91
2016-11-25T00:11:59.177Z,85.71
2016-11-25T00:13:09.707Z,86.1
2016-11-25T00:14:20.235Z,86.15
2016-11-25T00:15:30.772Z,85.86
2016-11-25T00:16:41.302Z,85.81
2016-11-25T00:18:06.362Z,86.58
2016-11-25T00:19:16.896Z,86.82
2016-11-25T00:20:27.430Z,86.63
2016-11-25T00:21:37.961Z,86.54
2016-11-25T00:23:03.019Z,86.82
2016-11-25T00:24:13.553Z,85.96
2016-11-25T00:25:24.086Z,86.44
2016-11-25T00:26:34.649Z,86.15
2016-11-25T00:27:45.180Z,86.15
2016-11-25T00:28:55.749Z,85.96
2016-11-25T00:30:06.284Z,85.77
2016-11-25T00:31:17.043Z,85.77
2016-11-25T00:32:27.583Z,85.86
2016-11-25T00:35:03.206Z,86.05
2016-11-25T00:36:13.738Z,86.44
2016-11-25T00:37:24.270Z,86.35
2016-11-25T00:38:34.804Z,86.39
2016-11-25T00:39:45.336Z,86.35
2016-11-25T00:40:55.877Z,86.25
2016-11-25T00:42:06.409Z,86.35
2016-11-25T00:43:16.971Z,86.25
2016-11-25T00:44:27.665Z,86.05
2016-11-25T00:45:38.200Z,86.15
2016-11-25T00:46:48.730Z,86.25
2016-11-25T00:47:59.265Z,85.77
2016-11-25T00:49:09.800Z,86.15
2016-11-25T00:50:20.357Z,85.67
2016-11-25T00:51:30.888Z,85.19
2016-11-25T00:52:41.421Z,85.57
2016-11-25T00:53:51.954Z,85.67
2016-11-25T00:55:02.507Z,85.67
2016-11-25T00:56:13.043Z,85.38
2016-11-25T00:57:23.576Z,85.38
2016-11-25T00:58:34.121Z,85.19
2016-11-25T00:59:59.177Z,85.19
2016-11-25T01:01:09.711Z,85.38
2016-11-25T01:02:34.769Z,84.99
2016-11-25T01:03:45.301Z,84.99
2016-11-25T01:05:10.560Z,85.09
2016-11-25T01:06:21.095Z,85.28
2016-11-25T01:07:31.631Z,85.19
2016-11-25T01:08:42.185Z,84.61
2016-11-25T01:09:52.951Z,84.12
2016-11-25T01:11:03.590Z,84.42
2016-11-25T01:12:14.178Z,85.38
2016-11-25T01:13:24.648Z,84.32
2016-11-25T01:14:35.110Z,84.12
2016-11-25T01:15:45.617Z,84.8
2016-11-25T01:16:56.180Z,84.12
2016-11-25T01:18:06.712Z,84.52
2016-11-25T01:19:17.247Z,84.9
2016-11-25T01:20:42.306Z,85.19
2016-11-25T01:21:52.838Z,84.42
2016-11-25T01:23:03.868Z,84.99
2016-11-25T01:24:14.401Z,84.8
2016-11-25T01:25:24.933Z,85.19
2016-11-25T01:26:35.624Z,85.28
2016-11-25T01:27:46.355Z,85.28
2016-11-25T01:28:56.888Z,85.09
2016-11-25T01:30:07.421Z,85.19
2016-11-25T01:31:17.952Z,84.9
2016-11-25T01:32:28.489Z,85.19
2016-11-25T01:33:39.219Z,84.99
2016-11-25T01:35:04.282Z,85.28
2016-11-25T01:36:14.816Z,85.19
2016-11-25T01:37:25.378Z,85.19
2016-11-25T01:38:35.910Z,85.19
2016-11-25T01:39:46.669Z,85.28
2016-11-25T01:40:57.205Z,84.99
2016-11-25T01:42:07.747Z,85.28
2016-11-25T01:43:18.282Z,85.28
2016-11-25T01:44:28.815Z,85.19
2016-11-25T01:45:39.379Z,86.25
2016-11-25T01:46:49.921Z,85.57
2016-11-25T01:48:00.457Z,86.54
2016-11-25T01:49:10.998Z,86.44
2016-11-25T01:50:21.530Z,86.05
2016-11-25T01:51:32.059Z,86.35
2016-11-25T01:52:42.608Z,85.96
2016-11-25T01:53:53.143Z,85.67
2016-11-25T01:55:18.195Z,86.44
2016-11-25T01:56:28.731Z,86.05
2016-11-25T01:57:39.230Z,86.05
2016-11-25T01:58:49.669Z,86.35
2016-11-25T02:00:14.651Z,86.15
2016-11-25T02:01:25.101Z,86.35
2016-11-25T02:02:35.544Z,86.44
2016-11-25T02:04:00.525Z,86.05
2016-11-25T02:05:11.140Z,86.25
2016-11-25T02:06:21.778Z,85.67
2016-11-25T02:07:32.216Z,86.05
2016-11-25T02:08:42.574Z,86.25
2016-11-25T02:09:52.928Z,86.35
2016-11-25T02:11:03.732Z,86.25
2016-11-25T02:12:14.255Z,86.35
2016-11-25T02:13:25.053Z,86.15
2016-11-25T02:14:35.373Z,86.44
2016-11-25T02:15:45.696Z,85.86
2016-11-25T02:16:56.491Z,85.47
2016-11-25T02:18:06.816Z,85.86
2016-11-25T02:19:17.144Z,85.96
2016-11-25T02:20:27.473Z,85.86
2016-11-25T02:21:52.361Z,85.77
2016-11-25T02:23:02.684Z,85.77
2016-11-25T02:24:13.008Z,85.38
2016-11-25T02:25:23.352Z,85.86
2016-11-25T02:26:33.678Z,85.86
2016-11-25T02:27:43.999Z,85.86
2016-11-25T02:28:54.317Z,86.05
2016-11-25T02:30:04.662Z,85.96
2016-11-25T02:31:14.984Z,85.77
2016-11-25T02:32:25.303Z,85.86
2016-11-25T02:33:35.624Z,85.96
2016-11-25T02:34:46.142Z,85.86
2016-11-25T02:35:56.465Z,85.96
2016-11-25T02:37:06.788Z,85.96
2016-11-25T02:38:17.109Z,86.35
2016-11-25T02:39:27.427Z,86.44
2016-11-25T02:40:37.952Z,86.44
2016-11-25T02:41:48.269Z,86.44
2016-11-25T02:42:58.697Z,86.44
2016-11-25T02:44:09.231Z,86.35
2016-11-25T02:45:19.770Z,86.44
2016-11-25T02:46:30.303Z,86.44
2016-11-25T02:47:40.840Z,86.05
2016-11-25T02:48:51.370Z,86.44
2016-11-25T02:50:16.426Z,86.63
2016-11-25T02:51:26.956Z,87.02
2016-11-25T02:52:52.241Z,86.82
2016-11-25T02:54:02.775Z,86.15
2016-11-25T02:55:13.305Z,86.15
2016-11-25T02:56:23.841Z,86.25
2016-11-25T02:57:48.897Z,86.54
2016-11-25T02:58:59.434Z,86.44
2016-11-25T03:00:10.462Z,87.02
2016-11-25T03:01:20.992Z,85.96
2016-11-25T03:02:31.523Z,86.63
2016-11-25T03:03:42.080Z,87.12
2016-11-25T03:04:52.609Z,87.4
2016-11-25T03:06:03.140Z,87.6
2016-11-25T03:07:28.209Z,87.84
2016-11-25T03:08:39.248Z,88.23
2016-11-25T03:09:49.786Z,89
2016-11-25T03:11:00.317Z,88.81
2016-11-25T03:12:10.848Z,89.09
2016-11-25T03:13:21.607Z,89.09
2016-11-25T03:14:32.137Z,89.19
2016-11-25T03:15:42.671Z,89.58
2016-11-25T03:17:07.730Z,89.77
2016-11-25T03:18:18.264Z,89.29
2016-11-25T03:19:28.999Z,89.19
2016-11-25T03:20:39.527Z,89.29
2016-11-25T03:21:50.058Z,89.39
2016-11-25T03:23:00.592Z,89.23
2016-11-25T03:24:11.349Z,89.72
2016-11-25T03:25:21.881Z,89.81
2016-11-25T03:26:32.407Z,89.33
2016-11-25T03:27:42.974Z,89.04
2016-11-25T03:28:53.507Z,88.42
2016-11-25T03:30:04.038Z,88.04
2016-11-25T03:31:14.568Z,87.55
2016-11-25T03:32:25.098Z,87.74
2016-11-25T03:33:35.630Z,86.98
2016-11-25T03:34:46.161Z,86.78
2016-11-25T03:35:56.693Z,86.73
2016-11-25T03:37:07.220Z,86.49
2016-11-25T03:38:17.751Z,86.63
2016-11-25T03:39:28.282Z,87.02
2016-11-25T03:40:38.852Z,86.73
2016-11-25T03:41:49.585Z,87.6
2016-11-25T03:43:00.132Z,87.4
2016-11-25T03:44:10.693Z,88.37
2016-11-25T03:45:21.224Z,87.6
2016-11-25T03:46:31.751Z,87.79
2016-11-25T03:47:56.811Z,87.79
2016-11-25T03:49:07.342Z,87.88
2016-11-25T03:50:17.903Z,87.88
2016-11-25T03:51:42.959Z,87.88
2016-11-25T03:52:53.692Z,87.79
2016-11-25T03:54:04.225Z,87.3
2016-11-25T03:55:14.753Z,87.7
2016-11-25T03:56:25.317Z,86.92
2016-11-25T03:59:00.938Z,87.4
2016-11-25T04:00:11.471Z,86.92
2016-11-25T04:01:22.009Z,87.02
2016-11-25T04:02:32.544Z,86.73
2016-11-25T04:03:43.073Z,87.12
2016-11-25T04:04:53.606Z,86.63
2016-11-25T04:06:04.136Z,86.82
2016-11-25T04:07:14.703Z,86.82
2016-11-25T04:08:25.268Z,86.73
2016-11-25T04:09:35.798Z,86.35
2016-11-25T04:10:46.329Z,87.12
2016-11-25T04:11:56.864Z,86.73
2016-11-25T04:13:07.395Z,87.02
2016-11-25T04:14:17.926Z,86.73
2016-11-25T04:15:28.459Z,86.73
2016-11-25T04:16:38.993Z,87.4
2016-11-25T04:17:49.528Z,87.4
2016-11-25T04:19:00.062Z,87.88
2016-11-25T04:20:10.590Z,87.6
2016-11-25T04:21:21.348Z,88.27
2016-11-25T04:22:31.879Z,87.6
2016-11-25T04:23:42.413Z,88.27
2016-11-25T04:24:52.944Z,88.17
2016-11-25T04:26:03.471Z,88.08
2016-11-25T04:27:14.702Z,88.04
2016-11-25T04:28:25.237Z,88.04
2016-11-25T04:29:35.766Z,88.23
2016-11-25T04:30:46.300Z,88.23
2016-11-25T04:31:56.837Z,88.17
2016-11-25T04:33:07.368Z,88.56
2016-11-25T04:34:17.898Z,87.55
2016-11-25T04:35:28.430Z,87.36
2016-11-25T04:36:38.961Z,87.36
2016-11-25T04:37:49.496Z,87.46
2016-11-25T04:39:00.027Z,87.5
2016-11-25T04:40:11.085Z,87.17
2016-11-25T04:41:21.616Z,87.6
2016-11-25T04:42:32.145Z,87.6
2016-11-25T04:43:42.676Z,87.6
2016-11-25T04:44:53.211Z,87.7
2016-11-25T04:46:03.744Z,87.7
2016-11-25T04:47:14.278Z,87.4
2016-11-25T04:48:24.807Z,87.02
2016-11-25T04:49:35.336Z,87.21
2016-11-25T04:50:46.067Z,86.82
2016-11-25T04:51:56.598Z,87.02
2016-11-25T04:53:07.128Z,86.73
2016-11-25T04:54:17.658Z,86.63
2016-11-25T04:55:28.189Z,86.25
2016-11-25T04:56:38.719Z,87.02
2016-11-25T04:57:49.250Z,86.54
2016-11-25T04:58:59.785Z,86.35
2016-11-25T05:00:10.325Z,86.35
2016-11-25T05:01:20.856Z,86.44
2016-11-25T05:02:31.593Z,86.05
2016-11-25T05:03:42.128Z,86.44
2016-11-25T05:04:52.657Z,86.92
2016-11-25T05:06:03.185Z,86.35
2016-11-25T05:07:13.746Z,86.73
2016-11-25T05:08:24.475Z,86.82
2016-11-25T05:09:35.012Z,86.73
2016-11-25T05:10:45.574Z,86.54
2016-11-25T05:11:56.135Z,86.73
2016-11-25T05:13:06.674Z,86.15
2016-11-25T05:14:17.406Z,86.05
2016-11-25T05:15:27.934Z,86.35
2016-11-25T05:16:38.463Z,86.44
2016-11-25T05:17:49.025Z,86.44
2016-11-25T05:18:59.558Z,86.44
2016-11-25T05:20:10.293Z,86.82
2016-11-25T05:21:20.830Z,86.25
2016-11-25T05:22:31.359Z,86.63
2016-11-25T05:23:41.889Z,86.92
2016-11-25T05:25:06.948Z,86.92
2016-11-25T05:26:17.481Z,86.82
2016-11-25T05:27:42.535Z,86.73
2016-11-25T05:28:53.069Z,86.82
2016-11-25T05:30:03.604Z,86.35
2016-11-25T05:31:14.142Z,86.54
2016-11-25T05:32:24.679Z,86.35
2016-11-25T05:33:35.207Z,86.54
2016-11-25T05:34:45.736Z,86.63
2016-11-25T05:35:56.467Z,86.73
2016-11-25T05:37:06.996Z,86.73
2016-11-25T05:38:17.527Z,86.73
2016-11-25T05:39:28.059Z,86.92
2016-11-25T05:40:38.591Z,86.73
2016-11-25T05:41:49.282Z,86.44
2016-11-25T05:42:59.720Z,86.63
2016-11-25T05:44:10.158Z,86.82
2016-11-25T05:45:20.606Z,86.73
2016-11-25T05:47:56.231Z,86.35
2016-11-25T05:49:06.672Z,86.35
2016-11-25T05:50:17.108Z,86.44
2016-11-25T05:51:27.545Z,86.25
2016-11-25T05:52:38.677Z,85.86
2016-11-25T05:53:49.112Z,85.67
2016-11-25T05:54:59.552Z,85.57
2016-11-25T05:56:09.989Z,86.25
2016-11-25T05:57:20.446Z,85.57
2016-11-25T05:58:31.087Z,85.77
2016-11-25T05:59:56.072Z,85.77
2016-11-25T06:01:06.516Z,85.09
2016-11-25T06:02:16.956Z,85.28
2016-11-25T06:03:27.390Z,85.38
2016-11-25T06:04:38.029Z,84.7
2016-11-25T06:05:48.478Z,84.9
2016-11-25T06:06:58.921Z,84.22
2016-11-25T06:08:09.359Z,84.42
2016-11-25T06:09:20.001Z,84.42
2016-11-25T06:10:30.442Z,84.7
2016-11-25T06:11:40.881Z,84.22
2016-11-25T06:12:51.328Z,84.12
2016-11-25T06:14:01.798Z,83.84
2016-11-25T06:15:12.237Z,84.32
2016-11-25T06:16:22.675Z,83.94
2016-11-25T06:17:33.116Z,84.12
2016-11-25T06:18:43.560Z,83.94
2016-11-25T06:19:53.998Z,84.03
2016-11-25T06:21:04.671Z,84.17
2016-11-25T06:22:29.652Z,83.55
2016-11-25T06:23:40.089Z,83.64
2016-11-25T06:24:50.527Z,83.55
2016-11-25T06:26:01.450Z,83.74
2016-11-25T06:28:37.183Z,83.84
2016-11-25T06:29:47.713Z,83.94
2016-11-25T06:30:58.244Z,83.11
2016-11-25T06:32:08.975Z,83.16
2016-11-25T06:33:19.510Z,82.92
2016-11-25T06:34:30.040Z,83.01
2016-11-25T06:35:40.571Z,83.01
2016-11-25T06:36:51.309Z,83.2
2016-11-25T06:38:01.841Z,83.01
2016-11-25T06:39:12.375Z,82.92
2016-11-25T06:40:22.905Z,83.2
2016-11-25T06:41:33.443Z,82.72
2016-11-25T06:42:44.299Z,82.82
2016-11-25T06:45:34.419Z,83.01
2016-11-25T06:46:44.950Z,82.92
2016-11-25T06:47:55.713Z,83.3
2016-11-25T06:49:06.210Z,83.3
2016-11-25T06:50:16.623Z,83.01
2016-11-25T06:51:27.032Z,83.2
2016-11-25T06:52:37.455Z,83.11
2016-11-25T06:53:48.066Z,83.01
2016-11-25T06:54:58.484Z,82.92
2016-11-25T06:56:08.927Z,83.3
2016-11-25T06:57:33.888Z,83.01
2016-11-25T06:58:44.333Z,83.59
2016-11-25T06:59:54.945Z,83.59
2016-11-25T07:01:05.363Z,83.59
2016-11-25T07:02:30.324Z,83.78
2016-11-25T07:03:40.736Z,83.59
2016-11-25T07:04:51.843Z,83.88
2016-11-25T07:06:02.251Z,83.5
2016-11-25T07:07:12.695Z,83.78
2016-11-25T07:08:23.108Z,83.78
2016-11-25T07:09:33.722Z,83.59
2016-11-25T07:10:44.140Z,83.88
2016-11-25T07:11:54.518Z,83.11
2016-11-25T07:13:04.841Z,83.69
2016-11-25T07:14:15.161Z,83.5
2016-11-25T07:15:25.679Z,83.69
2016-11-25T07:18:00.890Z,83.88
2016-11-25T07:19:11.212Z,83.4
2016-11-25T07:20:21.533Z,83.3
2016-11-25T07:21:44.465Z,83.3
2016-11-25T07:22:54.818Z,83.59
2016-11-25T07:24:05.619Z,83.78
2016-11-25T07:25:15.942Z,84.07
2016-11-25T07:26:26.463Z,83.5
2016-11-25T07:27:51.389Z,83.88
2016-11-25T07:29:01.715Z,83.69
2016-11-25T07:30:12.034Z,83.74
2016-11-25T07:31:22.354Z,83.59
2016-11-25T07:32:32.879Z,83.59
2016-11-25T07:33:43.200Z,83.98
2016-11-25T07:34:53.520Z,83.55
2016-11-25T07:36:03.837Z,83.59
2016-11-25T07:37:14.156Z,83.5
2016-11-25T07:38:24.477Z,83.59
2016-11-25T07:39:34.798Z,83.59
2016-11-25T07:40:45.117Z,83.59
2016-11-25T07:41:55.451Z,83.59
2016-11-25T07:43:05.972Z,83.59
2016-11-25T07:44:16.302Z,83.4
2016-11-25T07:45:26.622Z,83.64
2016-11-25T07:46:36.951Z,83.59
2016-11-25T07:47:47.272Z,83.78
2016-11-25T07:48:57.794Z,83.01
2016-11-25T07:50:22.687Z,82.97
2016-11-25T07:51:47.575Z,83.84
2016-11-25T07:52:57.897Z,83.55
2016-11-25T07:54:08.422Z,83.59
2016-11-25T07:55:33.313Z,83.45
2016-11-25T07:56:43.638Z,83.59
2016-11-25T07:57:53.960Z,83.74
2016-11-25T07:59:04.284Z,83.78
2016-11-25T08:00:14.608Z,83.69
2016-11-25T08:01:24.927Z,83.5
2016-11-25T08:02:35.247Z,83.59
2016-11-25T08:03:45.574Z,83.59
2016-11-25T08:04:56.099Z,83.69
2016-11-25T08:06:06.434Z,83.59
2016-11-25T08:07:16.752Z,83.3
2016-11-25T08:08:27.079Z,83.59
2016-11-25T08:09:37.405Z,83.4
2016-11-25T08:10:47.724Z,83.98
2016-11-25T08:11:58.047Z,84.22
2016-11-25T08:13:08.377Z,83.69
2016-11-25T08:14:18.695Z,83.5
2016-11-25T08:15:29.017Z,83.84
2016-11-25T08:16:39.817Z,84.03
2016-11-25T08:17:50.137Z,84.12
2016-11-25T08:19:00.463Z,84.03
2016-11-25T08:20:10.810Z,84.32
2016-11-25T08:21:21.135Z,84.42
2016-11-25T08:22:31.663Z,84.03
2016-11-25T08:23:41.989Z,83.94
2016-11-25T08:24:52.311Z,84.12
2016-11-25T08:26:02.638Z,84.03
2016-11-25T08:27:12.957Z,83.94
2016-11-25T08:28:23.494Z,83.74
2016-11-25T08:29:33.818Z,84.12
2016-11-25T08:30:44.139Z,84.03
2016-11-25T08:31:54.457Z,84.03
2016-11-25T08:33:04.781Z,83.84
2016-11-25T08:34:15.311Z,83.94
2016-11-25T08:35:25.637Z,84.12
2016-11-25T08:36:35.960Z,84.03
2016-11-25T08:37:46.280Z,83.84
2016-11-25T08:39:11.170Z,84.12
2016-11-25T08:40:21.489Z,84.22
2016-11-25T08:41:46.413Z,83.84
2016-11-25T08:42:56.823Z,84.03
2016-11-25T08:44:07.238Z,83.94
2016-11-25T08:45:17.900Z,84.03
2016-11-25T08:46:28.311Z,83.94
2016-11-25T08:47:38.724Z,83.94
2016-11-25T08:48:49.134Z,83.94
2016-11-25T08:50:00.228Z,84.03
2016-11-25T08:52:35.610Z,83.84
2016-11-25T08:53:46.024Z,84.03
2016-11-25T08:54:56.436Z,83.94
2016-11-25T08:56:06.852Z,84.22
2016-11-25T08:57:41.812Z,84.03
2016-11-25T08:58:52.226Z,83.94
2016-11-25T09:00:02.837Z,83.45
2016-11-25T09:01:13.269Z,83.55
2016-11-25T09:02:23.682Z,83.5
2016-11-25T09:03:34.579Z,83.36
2016-11-25T09:04:45.000Z,83.45
2016-11-25T09:05:55.417Z,83.59
2016-11-25T09:07:05.829Z,83.55
2016-11-25T09:08:16.296Z,83.69
2016-11-25T09:09:26.826Z,83.3
2016-11-25T09:10:37.360Z,83.3
2016-11-25T09:11:48.095Z,83.3
2016-11-25T09:12:58.625Z,83.59
2016-11-25T09:14:23.681Z,83.3
2016-11-25T09:15:34.208Z,83.3
2016-11-25T09:16:44.745Z,83.59
2016-11-25T09:17:55.280Z,83.01
2016-11-25T09:19:05.812Z,83.11
2016-11-25T09:20:16.343Z,82.72
2016-11-25T09:21:26.872Z,83.01
2016-11-25T09:22:37.402Z,83.01
2016-11-25T09:23:47.940Z,82.92
2016-11-25T09:24:58.479Z,83.01
2016-11-25T09:26:08.984Z,82.72
2016-11-25T09:27:19.424Z,82.82
2016-11-25T09:28:29.879Z,83.11
2016-11-25T09:29:40.315Z,82.92
2016-11-25T09:30:50.750Z,83.11
2016-11-25T09:32:01.189Z,82.43
2016-11-25T09:33:11.627Z,82.62
2016-11-25T09:34:22.067Z,83.2
2016-11-25T09:35:32.513Z,82.82
2016-11-25T09:36:42.987Z,82.92
2016-11-25T09:37:53.426Z,82.92
2016-11-25T09:39:03.865Z,83.11
2016-11-25T09:40:14.505Z,82.92
2016-11-25T09:42:49.889Z,83.11
2016-11-25T09:44:00.209Z,82.72
2016-11-25T09:45:10.533Z,82.82
2016-11-25T09:46:20.889Z,82.53
2016-11-25T09:47:45.783Z,82.72
2016-11-25T09:48:56.101Z,82.92
2016-11-25T09:50:06.422Z,84.46
2016-11-25T09:51:16.945Z,84.98
2016-11-25T09:52:41.845Z,85.61
2016-11-25T09:53:52.166Z,85.33
2016-11-25T09:55:02.972Z,85.52
2016-11-25T09:56:13.298Z,85.08
2016-11-25T09:57:23.623Z,84.11
2016-11-25T09:58:34.425Z,83.83
2016-11-25T09:59:44.782Z,83.15
2016-11-25T10:00:55.592Z,82.48
2016-11-25T10:02:05.913Z,81.6
2016-11-25T10:03:16.239Z,81.9
2016-11-25T10:04:26.559Z,82.09
2016-11-25T10:05:36.878Z,82.03
2016-11-25T10:06:47.203Z,81.41
2016-11-25T10:07:57.723Z,81.65
2016-11-25T10:09:08.066Z,81.45
2016-11-25T10:10:18.387Z,81.93
2016-11-25T10:11:28.720Z,81.22
2016-11-25T10:12:39.041Z,81.45
2016-11-25T10:15:14.254Z,80.3
2016-11-25T10:16:24.582Z,80.39
2016-11-25T10:17:34.967Z,80.3
2016-11-25T10:18:45.413Z,80
2016-11-25T10:20:10.399Z,79.72
2016-11-25T10:21:20.843Z,79.33
2016-11-25T10:22:31.282Z,79.14
2016-11-25T10:23:41.721Z,79.43
2016-11-25T10:24:52.163Z,79.14
2016-11-25T10:26:03.092Z,79.43
2016-11-25T10:27:28.078Z,79.14
2016-11-25T10:28:38.514Z,79.14
2016-11-25T10:29:49.162Z,79.33
2016-11-25T10:30:59.603Z,79.72
2016-11-25T10:32:24.591Z,79.62
2016-11-25T10:35:00.012Z,79.85
2016-11-25T10:36:10.485Z,79.52
2016-11-25T10:37:20.925Z,79.52
2016-11-25T10:38:31.390Z,79.17
2016-11-25T10:39:41.829Z,79.17
2016-11-25T10:40:52.272Z,79.66
2016-11-25T10:42:03.199Z,79.72
2016-11-25T10:43:13.643Z,79.14
2016-11-25T10:44:24.566Z,79.04
2016-11-25T10:45:35.010Z,78.94
2016-11-25T10:46:45.448Z,79.24
2016-11-25T10:47:55.893Z,79.43
2016-11-25T10:49:06.333Z,78.56
2016-11-25T10:50:16.769Z,78.94
2016-11-25T10:51:27.207Z,78.59
2016-11-25T10:52:37.648Z,78.69
2016-11-25T10:53:48.088Z,78.69
2016-11-25T10:54:58.528Z,78.69
2016-11-25T10:56:09.008Z,79.17
2016-11-25T10:57:19.540Z,79.27
2016-11-25T10:58:30.273Z,78.5
2016-11-25T10:59:40.801Z,78.69
2016-11-25T11:00:51.332Z,78.41
2016-11-25T11:02:02.369Z,78.54
2016-11-25T11:03:12.944Z,77.96
2016-11-25T11:04:23.474Z,77.38
2016-11-25T11:05:34.004Z,77.48
2016-11-25T11:06:44.540Z,76.8
2016-11-25T11:07:55.072Z,76.51
2016-11-25T11:09:05.606Z,75.39
2016-11-25T11:10:16.342Z,76.06
2016-11-25T11:11:26.877Z,74.52
2016-11-25T11:12:37.491Z,74.87
2016-11-25T11:13:48.023Z,75.16
2016-11-25T11:14:58.555Z,75.16
2016-11-25T11:16:09.289Z,74.9
2016-11-25T11:17:19.824Z,74.04
2016-11-25T11:18:30.350Z,73.36
2016-11-25T11:21:20.665Z,73.36
2016-11-25T11:22:31.197Z,74.13
2016-11-25T11:23:41.730Z,73.94
2016-11-25T11:25:06.792Z,73.94
2016-11-25T11:26:17.287Z,73.46
2016-11-25T11:27:27.950Z,73.36
2016-11-25T11:28:52.908Z,73.65
2016-11-25T11:30:03.320Z,72.72
2016-11-25T11:31:13.734Z,72.52
2016-11-25T11:32:24.175Z,72.62
2016-11-25T11:33:34.592Z,72.72
2016-11-25T11:34:45.003Z,72.14
2016-11-25T11:35:55.410Z,72.24
2016-11-25T11:37:05.823Z,71.36
2016-11-25T11:38:16.430Z,71.5
2016-11-25T11:39:26.838Z,71.4
2016-11-25T11:40:37.253Z,71.88
2016-11-25T11:41:47.666Z,70.43
2016-11-25T11:42:58.093Z,70.04
2016-11-25T11:44:08.513Z,70.14
2016-11-25T11:45:18.923Z,70.24
2016-11-25T11:46:29.339Z,69.56
2016-11-25T11:47:39.751Z,69.98
2016-11-25T11:49:04.723Z,69.01
2016-11-25T11:50:15.173Z,69.5
2016-11-25T11:51:25.583Z,68.27
2016-11-25T11:52:35.998Z,67.11
2016-11-25T11:53:46.416Z,67.11
2016-11-25T11:54:57.162Z,68.47
2016-11-25T11:56:07.579Z,67.14
2016-11-25T11:57:17.996Z,67.34
2016-11-25T11:58:28.410Z,67.34
2016-11-25T11:59:38.832Z,65.24
2016-11-25T12:00:49.241Z,64.75
2016-11-25T12:01:59.655Z,64.56
2016-11-25T12:03:10.104Z,64.65
2016-11-25T12:04:20.516Z,64.65
2016-11-25T12:05:30.933Z,64.78
2016-11-25T12:06:41.543Z,63.53
2016-11-25T12:07:51.956Z,63.23
2016-11-25T12:09:02.405Z,63.17
2016-11-25T12:10:12.819Z,63.17
2016-11-25T12:11:23.236Z,63.46
2016-11-25T12:12:33.649Z,62.78
2016-11-25T12:13:44.060Z,62.88
2016-11-25T12:15:09.023Z,62.78
2016-11-25T12:16:19.440Z,62.49
2016-11-25T12:17:29.857Z,62.62
2016-11-25T12:18:40.268Z,62.91
2016-11-25T12:19:50.684Z,63.26
2016-11-25T12:21:01.099Z,63.17
2016-11-25T12:22:11.516Z,63.17
2016-11-25T12:23:22.490Z,60.97
2016-11-25T12:24:32.904Z,60.41
2016-11-25T12:25:43.320Z,60.41
2016-11-25T12:26:53.737Z,61.38
2016-11-25T12:28:04.148Z,61.19
2016-11-25T12:29:14.839Z,61.58
2016-11-25T12:30:25.260Z,61.68
2016-11-25T12:31:35.697Z,60.71
2016-11-25T12:32:46.110Z,60.93
2016-11-25T12:33:56.777Z,61.32
2016-11-25T12:35:08.572Z,60.25
2016-11-25T12:36:18.987Z,59.67
2016-11-25T12:37:43.955Z,59.86
2016-11-25T12:38:54.406Z,59.57
2016-11-25T12:40:04.818Z,59.38
2016-11-25T12:41:15.239Z,59.69
2016-11-25T12:42:40.208Z,59.47
2016-11-25T12:43:50.625Z,60.05
2016-11-25T12:45:01.038Z,59.38
2016-11-25T12:46:11.460Z,59.21
2016-11-25T12:47:21.873Z,58.23
2016-11-25T12:48:32.294Z,57.56
2016-11-25T12:49:42.710Z,57.87
2016-11-25T12:50:53.327Z,57.51
2016-11-25T12:52:18.412Z,57.61
2016-11-25T12:53:28.829Z,57.68
2016-11-25T12:54:39.242Z,58.23
2016-11-25T12:55:49.656Z,58.53
2016-11-25T12:57:00.077Z,58.62
2016-11-25T12:58:25.042Z,56.61
2016-11-25T12:59:35.460Z,55.93
2016-11-25T13:00:45.877Z,55.37
2016-11-25T13:02:10.842Z,55.4
2016-11-25T13:03:35.810Z,55.11
2016-11-25T13:04:46.231Z,55.21
2016-11-25T13:05:57.129Z,55.23
2016-11-25T13:07:07.554Z,56.35
2016-11-25T13:08:32.687Z,54.91
2016-11-25T13:09:43.099Z,55.69
2016-11-25T13:10:53.510Z,55.01
2016-11-25T13:12:04.096Z,55.13
2016-11-25T14:46:26.338Z,49.17
2016-11-25T14:47:36.873Z,49.27
2016-11-25T14:48:47.411Z,49.07
2016-11-25T14:49:58.732Z,49
2016-11-25T14:51:09.266Z,49.29
2016-11-25T14:52:34.336Z,48.9
2016-11-25T14:53:44.874Z,48.05
2016-11-25T14:54:55.408Z,47.38
2016-11-25T14:56:20.477Z,48.07
2016-11-25T14:57:31.210Z,46.31
2016-11-25T14:58:42.268Z,46.14
2016-11-25T14:59:52.808Z,45.65
2016-11-25T15:01:03.348Z,45.28
2016-11-25T15:02:13.887Z,45.08
2016-11-25T15:03:24.631Z,44.4
2016-11-25T15:04:35.168Z,44.2
2016-11-25T15:05:45.705Z,44.89
2016-11-25T15:06:56.243Z,45.62
2016-11-25T15:08:06.784Z,44.94
2016-11-25T15:09:17.330Z,46.39
2016-11-25T15:10:27.869Z,46.36
2016-11-25T15:11:38.409Z,47.02
2016-11-25T15:12:49.125Z,47.31
2016-11-25T15:14:14.190Z,48
2016-11-25T15:15:24.935Z,47.41
2016-11-25T15:16:35.470Z,47.31
2016-11-25T15:17:46.009Z,47.41
2016-11-25T15:18:56.554Z,48
2016-11-25T15:20:07.092Z,47.31
2016-11-25T15:21:17.627Z,48.39
2016-11-25T15:22:42.692Z,48.93
2016-11-25T15:23:53.227Z,48.36
2016-11-25T15:25:04.260Z,48.93
2016-11-25T15:26:14.807Z,49.12
2016-11-25T15:27:25.348Z,49.61
2016-11-25T15:28:50.375Z,49.39
2016-11-25T15:30:00.792Z,49.29
2016-11-25T15:32:36.195Z,48.93
2016-11-25T15:33:46.625Z,49.02
2016-11-25T15:34:57.056Z,48.63
2016-11-25T15:36:07.472Z,49.51
2016-11-25T15:37:17.889Z,49.73
2016-11-25T15:38:28.302Z,49.22
2016-11-25T15:39:38.749Z,49.41
2016-11-25T15:40:49.179Z,49.32
2016-11-25T15:42:00.082Z,49.34
2016-11-25T15:43:39.599Z,48.75
2016-11-25T15:45:04.599Z,48.07
2016-11-25T15:46:29.568Z,48.07
2016-11-25T15:47:40.181Z,48.27
2016-11-25T15:48:50.599Z,48.49
2016-11-25T15:50:01.013Z,47.71
2016-11-25T15:51:11.431Z,48
2016-11-25T15:52:21.851Z,49.07
2016-11-25T15:53:32.268Z,50.34
2016-11-25T15:54:42.692Z,51.21
2016-11-25T15:55:53.115Z,51.12
2016-11-25T15:57:03.535Z,51.31
2016-11-25T15:58:13.952Z,50.34
2016-11-25T15:59:24.405Z,49.76
2016-11-25T16:00:34.826Z,49.95
2016-11-25T16:01:45.240Z,51.02
2016-11-25T16:02:55.656Z,51.31
2016-11-25T16:04:06.089Z,52.09
2016-11-25T16:05:46.112Z,52.48
2016-11-25T16:06:56.534Z,52.48
2016-11-25T16:08:06.955Z,50.92
2016-11-25T16:09:17.377Z,52
2016-11-25T16:10:28.023Z,52.29
2016-11-25T16:11:38.435Z,51.97
2016-11-25T16:12:48.866Z,52.36
2016-11-25T16:13:59.290Z,52.07
2016-11-25T16:15:09.715Z,52.46
2016-11-25T16:16:20.333Z,52.92
2016-11-25T16:17:30.749Z,53.7
2016-11-25T16:18:41.192Z,53.8
2016-11-25T16:19:51.611Z,53.21
2016-11-25T16:21:02.027Z,54.19
2016-11-25T16:22:27.204Z,54.97
2016-11-25T16:23:38.337Z,55.16
2016-11-25T16:24:48.760Z,55.26
2016-11-25T16:25:59.189Z,54.58
2016-11-25T16:27:10.091Z,54.38
2016-11-25T16:28:35.057Z,54.38
2016-11-25T16:29:45.477Z,54.77
2016-11-25T16:30:55.893Z,54.87
2016-11-25T16:32:06.344Z,55.46
2016-11-25T16:33:17.271Z,55.36
2016-11-25T16:34:27.911Z,54.97
2016-11-25T16:35:38.328Z,55.26
2016-11-25T16:36:48.744Z,53.67
2016-11-25T16:37:59.383Z,55.04
2016-11-25T16:39:10.009Z,55.52
2016-11-25T16:40:20.432Z,55.43
2016-11-25T16:41:30.852Z,56.6
2016-11-25T16:42:41.273Z,57.67
2016-11-25T16:43:51.694Z,57.74
2016-11-25T16:45:02.114Z,58.61
2016-11-25T16:46:27.106Z,59.59
2016-11-25T16:47:37.559Z,59.69
